KG-0002 weather

Naryn Airport
Naryn, Naryn Region, Kyrgyzstan

Public forecast

Using degrees Celsius for public forecast. Weather courtesy of forecast.io.

METAR (pilot weather report)

Closest report is Kashgar Airport, 114.1 nm (211.3 km) S. Retrieved 2019/03/26 01:00 UTC (38 minutes ago):

ZWSH 260100Z 30005MPS 260V320 CAVOK 08/M12 Q1021 NOSIG

TAF (pilot weather forecast)

Forecast is more than 12 hours old.

Closest forecast is Kashgar Airport, 114.1 nm (211.3 km) S. Retrieved 2019/02/19 18:00 UTC (1 month ago):

TAF ZWSH 191504Z 1918/2018 33004MPS 6000 FEW040 TX05/2009Z TNM04/00Z BECMG 2005/2006 12004MPS